Cooke City, Montana
Current Conditions -  °F | °C
As of 8:53 PM on Sunday 23 Nov 2014 (Local Time) from KLVM Reporting Station
Overcast Overcast  
Wind Chill: 27°   Ceiling: 5000
Heat Index: 38°   Visibility: 10mi
Dew Point: 17°   Wind: 23mph
Humidity: 43%   Direction: 240°WSW
Pressure: 29.87"   Gusts: 32mph
Location:  45.02°N, 109.94°W
Report Text: KLVM 240353Z AUTO 24020G28KT 10SM BKN050 OVC070 03/M08 A2987 RMK AO2 PK WND 24033/0338 SLP136 T00331083
Loading
Personal Weather Stations






























Interactive Weather Map New forecast layout! Learn more

10-Day Weather Forecast

Advertisements
Track Severe Weather on mobile